クライストチャーチ の空港の天気 - METARとTAF

クライストチャーチ国際空港 ( NZCH / CHC ) - ニュージーランド クライストチャーチ
飛行場実況気象(Metar)
観測時間01/19 10:30 NZDT (01/18 21:30 UTC)
風向・風速北東 5m/s
視程10km以上
天気現象
少しの雲 雲底高度 670m
全天の8割程度の雲 雲底高度 1130m
気温21℃
湿度69%
気圧1015hPa
METARNZCH 182130Z AUTO 05009KT 020V080 9999 FEW022/// BKN037/// 21/15 Q1015 NOSIG
過去の天気等 Google飛行場航空写真 Wunderground天気予報

過去48時間のMETAR

飛行場予報(TAF)
発表時間: 1/19 06:02 NZDT (1/18 17:02 UTC)
予報対象時間: 19日7時 NZDT ~ 20日7時 NZDT
風向・風速南南西 4m/s
視程10km以上
全天の8割程度の雲 雲底高度 460m
19日9時 NZDT ~ 19日12時 NZDT に徐々に
風向・風速東 8m/s
視程10km以上
なし
19日20時 NZDT ~ 20日1時 NZDT に一時的に
全天の8割程度の雲 雲底高度 460m
19日23時 NZDT ~ 20日1時 NZDT に徐々に
風向・風速北北東 3m/s
TAF NZCH 181702Z 1818/1918 21008KT 9999 BKN015
BECMG 1820/1823 08015KT CAVOK
TEMPO 1907/1912 BKN015
BECMG 1910/1912 02005KT